createdAt,value
2018-07-08T00:00:10.308Z,33.33
2018-07-08T00:02:39.401Z,24.30
2018-07-08T00:05:09.409Z,24.53
2018-07-08T00:07:38.955Z,21.97
2018-07-08T00:10:08.205Z,32.87
2018-07-08T00:12:37.396Z,21.73
2018-07-08T00:15:06.365Z,22.67
2018-07-08T00:17:35.023Z,24.60
2018-07-08T00:20:03.749Z,20.43
2018-07-08T00:22:32.498Z,23.43
2018-07-08T00:25:01.313Z,20.00
2018-07-08T00:27:30.061Z,21.03
2018-07-08T00:29:58.742Z,20.63
2018-07-08T00:32:28.100Z,19.70
2018-07-08T00:34:57.113Z,16.03
2018-07-08T00:37:26.055Z,17.63
2018-07-08T00:39:54.810Z,16.17
2018-07-08T00:42:23.408Z,16.37
2018-07-08T00:44:52.218Z,19.07
2018-07-08T00:47:21.195Z,15.90
2018-07-08T00:49:49.752Z,17.57
2018-07-08T00:52:18.394Z,18.50
2018-07-08T00:54:47.355Z,16.23
2018-07-08T00:57:17.140Z,15.80
2018-07-08T00:59:45.725Z,17.30
2018-07-08T01:02:14.287Z,16.10
2018-07-08T01:04:43.304Z,15.20
2018-07-08T01:07:12.349Z,15.30
2018-07-08T01:09:41.787Z,17.40
2018-07-08T01:12:16.993Z,15.37
2018-07-08T01:14:45.621Z,15.70
2018-07-08T01:17:17.043Z,23.80
2018-07-08T01:19:45.781Z,15.60
2018-07-08T01:22:14.430Z,20.80
2018-07-08T01:24:43.710Z,17.87
2018-07-08T01:27:12.297Z,16.93
2018-07-08T01:29:41.399Z,13.30
2018-07-08T01:32:10.014Z,15.90
2018-07-08T01:34:39.333Z,14.70
2018-07-08T01:37:08.459Z,14.77
2018-07-08T01:39:37.351Z,14.20
2018-07-08T01:42:07.221Z,14.40
2018-07-08T01:44:36.585Z,13.70
2018-07-08T01:47:05.207Z,16.57
2018-07-08T01:49:34.179Z,13.83
2018-07-08T01:52:02.897Z,14.13
2018-07-08T01:54:31.567Z,13.93
2018-07-08T01:57:00.568Z,14.80
2018-07-08T01:59:29.225Z,13.40
2018-07-08T02:01:58.643Z,15.47
2018-07-08T02:04:26.470Z,12.60
2018-07-08T02:06:55.357Z,13.70
2018-07-08T02:09:23.962Z,13.23
2018-07-08T02:11:52.624Z,11.57
2018-07-08T02:14:21.947Z,13.80
2018-07-08T02:16:52.024Z,13.33
2018-07-08T02:19:21.144Z,13.03
2018-07-08T02:21:50.486Z,16.40
2018-07-08T02:24:20.000Z,11.63
2018-07-08T02:26:49.344Z,13.67
2018-07-08T02:29:22.485Z,11.93
2018-07-08T02:31:51.579Z,20.60
2018-07-08T02:34:21.481Z,14.90
2018-07-08T02:36:50.173Z,13.03
2018-07-08T02:39:18.840Z,12.33
2018-07-08T02:41:48.231Z,13.43
2018-07-08T02:44:17.035Z,19.13
2018-07-08T02:46:45.799Z,11.87
2018-07-08T02:49:14.669Z,14.67
2018-07-08T02:51:43.292Z,12.47
2018-07-08T02:54:13.359Z,14.67
2018-07-08T02:56:43.359Z,16.70
2018-07-08T02:59:11.985Z,14.67
2018-07-08T03:01:40.539Z,11.70
2018-07-08T03:04:09.621Z,14.93
2018-07-08T03:06:38.202Z,15.23
2018-07-08T03:09:08.077Z,14.40
2018-07-08T03:11:37.040Z,14.20
2018-07-08T03:14:05.762Z,16.40
2018-07-08T03:16:34.333Z,17.10
2018-07-08T03:19:03.028Z,17.80
2018-07-08T03:21:35.750Z,15.97
2018-07-08T03:24:04.360Z,22.73
2018-07-08T03:26:33.941Z,17.10
2018-07-08T03:29:02.568Z,14.70
2018-07-08T03:31:31.131Z,17.00
2018-07-08T03:33:59.744Z,15.30
2018-07-08T03:36:28.398Z,18.37
2018-07-08T03:38:57.430Z,13.07
2018-07-08T03:41:26.364Z,15.20
2018-07-08T03:43:55.702Z,13.10
2018-07-08T03:46:24.467Z,16.80
2018-07-08T03:48:53.092Z,13.57
2018-07-08T03:51:21.737Z,16.67
2018-07-08T03:53:50.995Z,13.30
2018-07-08T03:56:21.129Z,15.37
2018-07-08T03:58:50.022Z,13.53
2018-07-08T04:01:18.911Z,16.83
2018-07-08T04:03:48.528Z,15.13
2018-07-08T04:06:17.183Z,17.50
2018-07-08T04:08:46.175Z,16.67
2018-07-08T04:11:14.757Z,14.67
2018-07-08T04:13:43.375Z,15.53
2018-07-08T04:16:12.035Z,15.50
2018-07-08T04:18:40.796Z,16.50
2018-07-08T04:21:10.097Z,16.03
2018-07-08T04:23:39.093Z,19.77
2018-07-08T04:26:09.368Z,18.13
2018-07-08T04:28:37.997Z,20.60
2018-07-08T04:31:06.638Z,15.40
2018-07-08T04:33:35.320Z,16.97
2018-07-08T04:36:06.378Z,17.77
2018-07-08T04:38:35.286Z,16.83
2018-07-08T04:41:03.951Z,18.03
2018-07-08T04:43:32.575Z,17.67
2018-07-08T04:46:01.223Z,18.63
2018-07-08T04:48:30.108Z,19.73
2018-07-08T04:50:58.833Z,19.97
2018-07-08T04:53:28.141Z,19.00
2018-07-08T04:55:56.859Z,19.57
2018-07-08T04:58:25.557Z,15.33
2018-07-08T05:00:54.296Z,19.90
2018-07-08T05:03:23.279Z,25.10
2018-07-08T05:05:51.921Z,16.50
2018-07-08T05:08:20.509Z,17.07
2018-07-08T05:10:49.100Z,18.17
2018-07-08T05:13:18.047Z,14.00
2018-07-08T05:15:47.561Z,14.77
2018-07-08T05:18:16.700Z,16.23
2018-07-08T05:20:45.352Z,13.77
2018-07-08T05:23:14.282Z,18.20
2018-07-08T05:25:43.284Z,17.03
2018-07-08T05:28:11.941Z,15.47
2018-07-08T05:30:40.738Z,17.23
2018-07-08T05:33:09.525Z,15.17
2018-07-08T05:35:38.117Z,14.93
2018-07-08T05:38:06.718Z,12.73
2018-07-08T05:40:35.511Z,13.50
2018-07-08T05:43:04.157Z,12.43
2018-07-08T05:45:33.494Z,11.90
2018-07-08T05:48:02.119Z,10.87
2018-07-08T05:50:31.094Z,14.77
2018-07-08T05:53:01.091Z,11.93
2018-07-08T05:55:29.700Z,9.53
2018-07-08T05:57:58.773Z,11.87
2018-07-08T06:00:27.502Z,9.63
2018-07-08T06:02:56.137Z,9.83
2018-07-08T06:05:25.098Z,9.30
2018-07-08T06:07:53.779Z,8.60
2018-07-08T06:10:22.444Z,9.97
2018-07-08T06:12:51.042Z,10.80
2018-07-08T06:15:20.132Z,14.30
2018-07-08T06:17:48.775Z,10.27
2018-07-08T06:20:18.045Z,12.60
2018-07-08T06:22:47.008Z,11.60
2018-07-08T06:25:15.637Z,16.43
2018-07-08T06:27:44.885Z,11.07
2018-07-08T06:30:13.549Z,10.90
2018-07-08T06:32:42.700Z,18.60
2018-07-08T06:35:11.877Z,10.57
2018-07-08T06:37:42.264Z,10.50
2018-07-08T06:40:10.889Z,10.97
2018-07-08T06:42:40.781Z,11.17
2018-07-08T06:45:09.536Z,9.90
2018-07-08T06:47:38.319Z,11.27
2018-07-08T06:50:07.767Z,12.93
2018-07-08T06:52:36.487Z,13.63
2018-07-08T06:55:05.180Z,12.13
2018-07-08T06:57:34.299Z,10.53
2018-07-08T07:00:03.166Z,10.53
2018-07-08T07:02:31.957Z,12.40
2018-07-08T07:05:00.916Z,10.57
2018-07-08T07:07:29.834Z,11.70
2018-07-08T07:09:58.685Z,9.97
2018-07-08T07:12:27.633Z,11.60
2018-07-08T07:14:56.302Z,9.07
2018-07-08T07:17:24.973Z,11.33
2018-07-08T07:19:54.222Z,11.13
2018-07-08T07:22:22.885Z,11.20
2018-07-08T07:24:51.575Z,10.73
2018-07-08T07:27:20.304Z,7.63
2018-07-08T07:29:48.964Z,7.70
2018-07-08T07:32:17.625Z,6.87
2018-07-08T07:34:46.296Z,8.23
2018-07-08T07:37:14.962Z,10.03
2018-07-08T07:39:44.017Z,9.40
2018-07-08T07:42:12.678Z,8.73
2018-07-08T07:44:41.689Z,6.73
2018-07-08T07:47:10.475Z,7.00
2018-07-08T07:49:39.133Z,8.63
2018-07-08T07:52:07.840Z,8.83
2018-07-08T07:54:36.495Z,6.87
2018-07-08T07:57:05.166Z,8.20
2018-07-08T07:59:34.547Z,11.10
2018-07-08T08:02:03.270Z,7.43
2018-07-08T08:04:32.016Z,5.80
2018-07-08T08:07:01.044Z,7.80
2018-07-08T08:09:29.903Z,5.47
2018-07-08T08:11:58.602Z,6.00
2018-07-08T08:14:27.296Z,6.00
2018-07-08T08:16:56.147Z,6.37
2018-07-08T08:19:25.058Z,7.50
2018-07-08T08:21:53.753Z,7.03
2018-07-08T08:24:23.323Z,6.60
2018-07-08T08:26:52.158Z,7.90
2018-07-08T08:29:21.182Z,6.03
2018-07-08T08:31:49.950Z,7.07
2018-07-08T08:34:56.008Z,8.10
2018-07-08T08:37:28.903Z,5.77
2018-07-08T08:39:59.016Z,6.23
2018-07-08T08:42:27.875Z,6.57
2018-07-08T08:44:57.595Z,5.67
2018-07-08T08:47:27.809Z,6.73
2018-07-08T08:49:56.774Z,7.17
2018-07-08T08:52:25.554Z,7.70
2018-07-08T08:54:55.185Z,6.83
2018-07-08T08:57:24.301Z,5.93
2018-07-08T08:59:52.943Z,7.40
2018-07-08T09:02:21.606Z,6.33
2018-07-08T09:04:50.953Z,4.87
2018-07-08T09:07:20.514Z,5.40
2018-07-08T09:09:49.212Z,6.90
2018-07-08T09:12:18.534Z,7.20
2018-07-08T09:14:47.620Z,5.47
2018-07-08T09:17:16.485Z,4.37
2018-07-08T09:19:45.514Z,5.30
2018-07-08T09:22:14.825Z,4.50
2018-07-08T09:24:44.065Z,8.90
2018-07-08T09:27:14.353Z,6.00
2018-07-08T09:29:43.038Z,6.40
2018-07-08T09:32:11.991Z,7.73
2018-07-08T09:34:40.821Z,4.90
2018-07-08T09:37:09.698Z,5.47
2018-07-08T09:39:38.635Z,4.40
2018-07-08T09:42:10.815Z,6.83
2018-07-08T09:44:41.488Z,5.40
2018-07-08T09:47:13.196Z,3.90
2018-07-08T09:49:41.803Z,4.77
2018-07-08T09:52:13.581Z,6.50
2018-07-08T09:54:45.304Z,4.10
2018-07-08T09:57:16.514Z,4.57
2018-07-08T09:59:47.843Z,4.33
2018-07-08T10:02:18.119Z,4.50
2018-07-08T10:04:50.439Z,6.27
2018-07-08T10:07:21.518Z,10.70
2018-07-08T10:09:53.885Z,3.60
2018-07-08T10:12:24.731Z,9.80
2018-07-08T10:14:57.086Z,6.40
2018-07-08T10:17:28.455Z,4.60
2018-07-08T10:20:00.962Z,5.43
2018-07-08T10:22:31.505Z,4.60
2018-07-08T10:25:03.140Z,6.90
2018-07-08T10:28:20.605Z,5.13
2018-07-08T10:30:51.723Z,4.10
2018-07-08T10:33:22.883Z,4.60
2018-07-08T10:35:59.039Z,6.63
2018-07-08T10:38:30.560Z,5.77
2018-07-08T10:41:01.326Z,4.80
2018-07-08T10:43:33.157Z,7.80
2018-07-08T10:46:05.478Z,5.90
2018-07-08T10:48:37.039Z,4.40
2018-07-08T10:51:06.953Z,7.87
2018-07-08T10:53:38.265Z,7.00
2018-07-08T10:56:09.375Z,5.13
2018-07-08T10:58:40.519Z,4.97
2018-07-08T11:01:12.009Z,6.47
2018-07-08T11:03:42.645Z,6.03
2018-07-08T11:06:15.791Z,6.50
2018-07-08T11:08:47.493Z,7.03
2018-07-08T11:11:18.849Z,5.13
2018-07-08T11:13:49.715Z,6.03
2018-07-08T11:16:20.193Z,3.60
2018-07-08T11:18:52.774Z,12.07
2018-07-08T11:21:23.559Z,7.17
2018-07-08T11:23:54.507Z,4.43
2018-07-08T11:26:26.235Z,6.63
2018-07-08T11:28:56.892Z,13.77
2018-07-08T11:31:27.922Z,4.00
2018-07-08T11:33:58.013Z,8.27
2018-07-08T11:36:29.994Z,4.13
2018-07-08T11:39:00.903Z,5.10
2018-07-08T11:41:33.402Z,8.80
2018-07-08T11:44:05.071Z,3.93
2018-07-08T11:46:34.071Z,3.90
2018-07-08T11:49:10.949Z,4.80
2018-07-08T11:51:42.568Z,3.57
2018-07-08T11:54:13.552Z,5.33
2018-07-08T11:56:45.316Z,4.77
2018-07-08T11:59:16.889Z,4.47
2018-07-08T12:01:47.673Z,4.30
2018-07-08T12:04:18.713Z,5.50
2018-07-08T12:06:50.813Z,4.00
2018-07-08T12:09:24.305Z,6.33
2018-07-08T12:11:56.691Z,4.73
2018-07-08T12:14:28.051Z,4.80
2018-07-08T12:17:00.008Z,4.27
2018-07-08T12:19:39.339Z,6.90
2018-07-08T12:22:14.129Z,7.37
2018-07-08T12:24:46.485Z,4.60
2018-07-08T12:27:18.190Z,5.40
2018-07-08T12:29:50.107Z,5.63
2018-07-08T12:32:21.619Z,6.40
2018-07-08T12:34:52.640Z,10.00
2018-07-08T12:37:24.046Z,4.53
2018-07-08T12:39:55.336Z,4.97
2018-07-08T12:42:26.344Z,3.73
2018-07-08T12:44:57.438Z,6.70
2018-07-08T12:47:28.162Z,7.60
2018-07-08T12:50:00.328Z,5.17
2018-07-08T12:52:29.429Z,5.23
2018-07-08T12:55:00.519Z,10.30
2018-07-08T12:57:31.607Z,7.13
2018-07-08T13:00:02.506Z,4.00
2018-07-08T13:02:33.341Z,4.70
2018-07-08T13:05:02.379Z,5.00
2018-07-08T13:07:34.011Z,5.23
2018-07-08T13:10:09.259Z,3.97
2018-07-08T13:12:43.351Z,3.83
2018-07-08T13:15:19.904Z,5.70
2018-07-08T13:17:52.404Z,6.50
2018-07-08T13:20:22.951Z,3.90
2018-07-08T13:22:54.899Z,5.20
2018-07-08T13:25:26.077Z,3.50
2018-07-08T13:27:58.471Z,4.00
2018-07-08T13:30:30.487Z,4.67
2018-07-08T13:33:01.676Z,4.90
2018-07-08T13:35:32.724Z,4.23
2018-07-08T13:38:03.465Z,5.37
2018-07-08T13:40:34.442Z,5.63
2018-07-08T13:43:05.337Z,6.70
2018-07-08T13:45:36.943Z,5.33
2018-07-08T13:48:08.516Z,4.10
2018-07-08T13:50:40.007Z,5.43
2018-07-08T13:53:11.204Z,3.80
2018-07-08T13:55:42.334Z,3.83
2018-07-08T13:58:11.620Z,12.10
2018-07-08T14:00:43.158Z,3.33
2018-07-08T14:03:14.367Z,3.23
2018-07-08T14:05:46.028Z,5.67
2018-07-08T14:08:16.753Z,6.60
2018-07-08T14:10:46.921Z,3.63
2018-07-08T14:13:17.921Z,5.23
2018-07-08T14:15:49.540Z,3.60
2018-07-08T14:18:20.628Z,3.20
2018-07-08T14:20:51.969Z,5.93
2018-07-08T14:23:21.195Z,3.53
2018-07-08T14:25:52.345Z,3.13
2018-07-08T14:28:25.377Z,3.30
2018-07-08T14:30:57.002Z,3.63
2018-07-08T14:33:28.013Z,4.60
2018-07-08T14:36:04.109Z,3.70
2018-07-08T14:38:35.058Z,6.17
2018-07-08T14:41:07.949Z,3.53
2018-07-08T14:43:39.011Z,3.37
2018-07-08T14:46:09.778Z,6.17
2018-07-08T14:48:41.201Z,3.40
2018-07-08T14:51:12.256Z,3.30
2018-07-08T14:53:43.056Z,6.10
2018-07-08T14:56:13.397Z,3.23
2018-07-08T14:58:44.604Z,3.23
2018-07-08T15:01:15.589Z,6.27
2018-07-08T15:03:47.300Z,4.40
2018-07-08T15:06:17.772Z,6.87
2018-07-08T15:08:49.170Z,3.53
2018-07-08T15:11:20.918Z,3.47
2018-07-08T15:13:52.211Z,3.20
2018-07-08T15:16:21.541Z,3.60
2018-07-08T15:18:53.223Z,4.40
2018-07-08T15:21:24.727Z,4.20
2018-07-08T15:23:56.249Z,3.13
2018-07-08T15:26:30.995Z,4.83
2018-07-08T15:29:01.299Z,5.87
2018-07-08T15:31:33.192Z,2.80
2018-07-08T15:34:04.650Z,5.47
2018-07-08T15:36:35.773Z,7.50
2018-07-08T15:39:08.999Z,4.20
2018-07-08T15:41:38.001Z,4.23
2018-07-08T15:44:08.930Z,5.10
2018-07-08T15:46:40.417Z,2.87
2018-07-08T15:49:11.301Z,4.53
2018-07-08T15:51:42.387Z,3.30
2018-07-08T15:54:13.578Z,6.53
2018-07-08T15:56:44.413Z,5.13
2018-07-08T15:59:15.071Z,3.33
2018-07-08T16:01:46.462Z,2.73
2018-07-08T16:04:17.490Z,5.00
2018-07-08T16:06:48.603Z,5.53
2018-07-08T16:09:19.866Z,2.53
2018-07-08T16:11:52.754Z,3.10
2018-07-08T16:14:23.875Z,3.63
2018-07-08T16:16:56.308Z,10.43
2018-07-08T16:19:27.421Z,3.10
2018-07-08T16:21:57.863Z,4.40
2018-07-08T16:24:28.752Z,4.70
2018-07-08T16:27:00.017Z,7.10
2018-07-08T16:29:30.937Z,4.83
2018-07-08T16:32:02.981Z,3.03
2018-07-08T16:34:31.756Z,2.83
2018-07-08T16:37:03.279Z,3.23
2018-07-08T16:39:34.379Z,3.23
2018-07-08T16:42:05.718Z,3.33
2018-07-08T16:44:37.609Z,2.80
2018-07-08T16:47:07.329Z,2.60
2018-07-08T16:49:38.360Z,3.30
2018-07-08T16:52:09.483Z,3.40
2018-07-08T16:54:40.919Z,2.40
2018-07-08T16:57:12.803Z,5.73
2018-07-08T16:59:44.313Z,3.50
2018-07-08T17:02:16.251Z,5.73
2018-07-08T17:04:47.048Z,4.53
2018-07-08T17:07:19.177Z,2.60
2018-07-08T17:09:49.941Z,3.27
2018-07-08T17:12:22.455Z,2.53
2018-07-08T17:14:53.761Z,3.00
2018-07-08T17:17:24.481Z,2.17
2018-07-08T17:19:56.661Z,2.90
2018-07-08T17:22:27.883Z,2.40
2018-07-08T17:24:58.931Z,2.53
2018-07-08T17:27:27.647Z,3.93
2018-07-08T17:29:58.705Z,2.70
2018-07-08T17:32:31.783Z,3.13
2018-07-08T17:35:02.850Z,3.50
2018-07-08T17:37:33.841Z,2.77
2018-07-08T17:40:04.698Z,3.77
2018-07-08T17:42:35.775Z,2.77
2018-07-08T17:45:06.524Z,2.20
2018-07-08T17:47:37.716Z,2.57
2018-07-08T17:50:09.172Z,2.60
2018-07-08T17:52:40.558Z,3.53
2018-07-08T17:55:11.206Z,3.63
2018-07-08T17:57:43.713Z,2.80
2018-07-08T18:00:15.810Z,2.80
2018-07-08T18:02:46.659Z,3.10
2018-07-08T18:05:17.382Z,2.73
2018-07-08T18:07:48.960Z,3.00
2018-07-08T18:10:20.057Z,4.40
2018-07-08T18:12:52.907Z,4.10
2018-07-08T18:15:24.489Z,2.50
2018-07-08T18:17:55.453Z,3.40
2018-07-08T18:20:26.767Z,10.13
2018-07-08T18:22:57.993Z,5.67
2018-07-08T18:25:29.472Z,4.77
2018-07-08T18:28:00.580Z,4.23
2018-07-08T18:30:32.865Z,3.97
2018-07-08T18:33:02.028Z,5.23
2018-07-08T18:35:34.150Z,5.20
2018-07-08T18:38:04.767Z,2.87
2018-07-08T18:40:35.557Z,2.50
2018-07-08T18:43:08.084Z,2.67
2018-07-08T18:45:37.152Z,10.47
2018-07-08T18:48:08.853Z,3.10
2018-07-08T18:50:40.487Z,5.57
2018-07-08T18:53:11.299Z,5.93
2018-07-08T18:55:42.017Z,5.20
2018-07-08T18:58:12.729Z,3.40
2018-07-08T19:00:45.292Z,2.30
2018-07-08T19:03:17.571Z,3.43
2018-07-08T19:05:49.911Z,7.53
2018-07-08T19:08:21.505Z,2.50
2018-07-08T19:10:51.536Z,4.50
2018-07-08T19:13:24.351Z,5.00
2018-07-08T19:15:57.177Z,4.47
2018-07-08T19:18:31.621Z,2.50
2018-07-08T19:21:02.263Z,3.93
2018-07-08T19:23:33.775Z,4.70
2018-07-08T19:26:03.616Z,3.43
2018-07-08T19:28:34.911Z,3.20
2018-07-08T19:31:05.852Z,2.80
2018-07-08T19:33:37.579Z,2.40
2018-07-08T19:36:08.847Z,2.47
2018-07-08T19:38:37.911Z,3.47
2018-07-08T19:41:10.467Z,4.10
2018-07-08T19:43:41.205Z,3.73
2018-07-08T19:46:12.263Z,3.97
2018-07-08T19:48:43.002Z,6.93
2018-07-08T19:51:13.988Z,4.33
2018-07-08T19:53:45.090Z,6.77
2018-07-08T19:56:15.512Z,4.13
2018-07-08T19:58:46.321Z,5.13
2018-07-08T20:01:16.702Z,4.00
2018-07-08T20:03:47.801Z,2.63
2018-07-08T20:06:18.612Z,3.77
2018-07-08T20:08:49.736Z,2.40
2018-07-08T20:11:20.476Z,4.50
2018-07-08T20:13:51.766Z,6.07
2018-07-08T20:16:22.492Z,2.30
2018-07-08T20:18:53.211Z,4.53
2018-07-08T20:21:24.571Z,3.37
2018-07-08T20:23:54.948Z,4.80
2018-07-08T20:26:26.085Z,8.50
2018-07-08T20:28:54.846Z,3.33
2018-07-08T20:31:23.575Z,2.83
2018-07-08T20:33:53.973Z,5.63
2018-07-08T20:36:23.330Z,5.83
2018-07-08T20:38:52.833Z,4.20
2018-07-08T20:41:21.565Z,5.90
2018-07-08T20:43:50.640Z,3.23
2018-07-08T20:46:20.974Z,2.90
2018-07-08T20:48:50.267Z,4.10
2018-07-08T20:51:19.049Z,3.50
2018-07-08T20:53:47.679Z,5.15
2018-07-08T20:56:17.656Z,3.60
2018-07-08T20:58:47.097Z,5.93
2018-07-08T21:01:17.482Z,3.60
2018-07-08T21:03:47.026Z,3.47
2018-07-08T21:06:17.158Z,5.33
2018-07-08T21:08:46.806Z,6.67
2018-07-08T21:11:16.883Z,4.20
2018-07-08T21:13:47.237Z,3.70
2018-07-08T21:16:17.082Z,5.90
2018-07-08T21:18:47.535Z,4.27
2018-07-08T21:21:17.341Z,10.00
2018-07-08T21:23:46.251Z,4.63
2018-07-08T21:26:15.201Z,6.27
2018-07-08T21:28:44.706Z,3.13
2018-07-08T21:31:13.347Z,9.63
2018-07-08T21:33:43.903Z,2.97
2018-07-08T21:36:13.107Z,3.33
2018-07-08T21:38:42.290Z,7.47
2018-07-08T21:41:11.784Z,6.33
2018-07-08T21:43:40.920Z,3.73
2018-07-08T21:46:09.967Z,3.33
2018-07-08T21:48:39.756Z,3.40
2018-07-08T21:51:10.610Z,3.80
2018-07-08T21:53:39.672Z,4.67
2018-07-08T21:56:09.411Z,5.60
2018-07-08T21:58:38.215Z,3.17
2018-07-08T22:01:15.551Z,6.23
2018-07-08T22:03:45.515Z,6.77
2018-07-08T22:06:16.584Z,3.80
2018-07-08T22:08:45.797Z,5.90
2018-07-08T22:11:14.488Z,3.67
2018-07-08T22:13:44.105Z,4.60
2018-07-08T22:16:13.214Z,3.60
2018-07-08T22:18:42.026Z,5.80
2018-07-08T22:21:11.504Z,4.50
2018-07-08T22:23:40.850Z,3.17
2018-07-08T22:26:13.223Z,2.90
2018-07-08T22:28:42.447Z,4.40
2018-07-08T22:31:12.537Z,3.17
2018-07-08T22:33:41.225Z,6.07
2018-07-08T22:36:10.021Z,4.40
2018-07-08T22:38:39.922Z,3.97
2018-07-08T22:41:08.635Z,6.73
2018-07-08T22:43:38.032Z,3.33
